Pescara - LIBP

Metar : METAR LIBP 201150Z 02004KT 350V060 9999 FEW050 BKN080 17/10 Q1011=

Taf : TAF LIBP 201100Z 2012/2112 VRB05KT 9999 SCT020=

 Scopri come leggere i bollettini codificati...


Storico

LIBP 201150Z 02004KT 350V060 9999 FEW050 BKN080 17/10 Q1011
LIBP 201050Z VRB02KT 9999 FEW050 BKN080 16/09 Q1011
LIBP 200950Z VRB02KT 9999 SCT050 15/09 Q1011
LIBP 200850Z 23003KT 9999 FEW045 BKN060 13/08 Q1012
LIBP 200750Z 24005KT 9999 SCT025 BKN045 12/08 Q1011
LIBP 200650Z 25004KT 9999 SCT025 BKN050 11/08 Q1011
LIBP 200550Z AUTO 20004KT 9999 BKN022/// BKN065/// BKN110/// 11/08 Q1011
LIBP 200450Z AUTO 23005KT 9999 SCT021/// BKN110/// 10/08 Q1010
LIBP 200350Z AUTO 23005KT 9999 BKN020/// BKN110/// 10/07 Q1011
LIBP 200250Z AUTO 22004KT 9999 BKN020/// BKN073/// 10/07 Q1011
LIBP 200150Z AUTO 22005KT 9999 FEW074/// BKN130/// BKN200/// 09/07 Q1012
LIBP 200050Z AUTO 24005KT 9999 FEW025/// SCT076/// OVC170/// 09/07 Q1012
LIBP 192350Z AUTO 24003KT 9999 FEW022/// BKN240/// 09/07 Q1013
LIBP 192250Z AUTO 24005KT 9999 FEW020/// BKN230/// 09/08 Q1013
LIBP 192150Z 23003KT CAVOK 09/08 Q1013
LIBP 192050Z 20006KT CAVOK 10/09 Q1014
LIBP 191950Z 22005KT CAVOK 11/09 Q1014
LIBP 191850Z 25002KT CAVOK 12/10 Q1014
LIBP 191750Z 21004KT CAVOK 12/10 Q1014
LIBP 191650Z 26003KT 230V300 CAVOK 13/10 Q1014
LIBP 191550Z 06004KT 020V080 9999 FEW060 14/10 Q1014
LIBP 191450Z 34002KT 9999 FEW100 16/09 Q1014
LIBP 191350Z VRB02KT 9999 FEW090 17/09 Q1014
LIBP 191250Z 19005KT 9999 FEW090 18/07 Q1014
LIBP 191150Z 25003KT 9999 FEW090 16/09 Q1014
LIBP 191050Z VRB01KT 9999 FEW090 16/09 Q1015
LIBP 190950Z 21004KT 170V250 CAVOK 14/08 Q1015
LIBP 190850Z VRB02KT 9999 SCT080 12/08 Q1015
LIBP 190750Z VRB02KT 9999 SCT060 12/08 Q1015
LIBP 190650Z 25003KT 9999 FEW050 BKN070 10/08 Q1015
LIBP 190550Z AUTO 19003KT 9999 OVC160/// 10/08 Q1015
LIBP 190350Z AUTO VRB02KT 9999 FEW097/// BKN190/// 10/08 Q1014
LIBP 190250Z AUTO 21004KT 9999 BKN100/// BKN200/// 10/08 Q1015
LIBP 190150Z AUTO 22003KT 190V250 9999 OVC200/// 10/08 Q1015
LIBP 190050Z AUTO 01003KT 340V080 9999 OVC210/// 12/08 Q1015
LIBP 182350Z AUTO VRB02KT 9999 OVC200/// 14/07 Q1015
LIBP 182250Z AUTO 15010KT 9999 OVC200/// 16/06 Q1015
LIBP 182150Z 14013KT CAVOK 16/07 Q1014
LIBP 181950Z 13013KT CAVOK 16/07 Q1014
LIBP 181850Z VRB04G15KT CAVOK 12/08 Q1014
LIBP 181750Z 23003KT 170V280 CAVOK 12/08 Q1014
LIBP 181650Z 29002KT CAVOK 12/08 Q1014
LIBP 181550Z VRB01KT 9999 FEW090 15/07 Q1014
LIBP 181450Z 10004KT 070V130 CAVOK 17/06 Q1014
LIBP 181350Z 09007KT 050V120 CAVOK 18/06 Q1014
LIBP 181250Z 06006KT CAVOK 19/06 Q1014
LIBP 181150Z 06008KT CAVOK 18/04 Q1014
LIBP 181050Z 13006KT CAVOK 18/06 Q1014
LIBP 180950Z 11007KT 080V140 9999 FEW070 18/07 Q1015
LIBP 180850Z 19004KT 140V230 9999 FEW070 17/05 Q1015
LIBP 180750Z 16005KT CAVOK 16/04 Q1014
LIBP 180650Z 16007KT 9999 FEW070 13/04 Q1014
LIBP 180550Z AUTO 20009KT 180V250 9999 NCD 14/03 Q1012
LIBP 180450Z AUTO 20010KT 9999 NCD 13/03 Q1012
LIBP 180350Z AUTO 20011KT 9999 NCD 13/03 Q1011
LIBP 180250Z AUTO 20010KT 9999 NCD 12/04 Q1011
LIBP 180150Z AUTO 24008KT 210V270 9999 NCD 13/04 Q1010
LIBP 180050Z AUTO 25006KT 220V290 9999 FEW230/// 14/04 Q1009
LIBP 172350Z AUTO 26004KT 9999 SCT220/// 12/07 Q1009
LIBP 172250Z AUTO 22004KT 180V270 9999 OVC180/// 14/05 Q1008
LIBP 172150Z 20006KT 160V260 9999 FEW025 15/10 Q1008
LIBP 172050Z 21005KT CAVOK 12/09 Q1007
LIBP 171950Z 31003KT 280V340 CAVOK 11/09 Q1006
LIBP 171850Z 33005KT 260V010 CAVOK 12/10 Q1005
LIBP 171750Z 27004KT 220V300 CAVOK 12/11 Q1005
LIBP 171650Z 34005KT 310V050 CAVOK 12/11 Q1004
LIBP 171550Z 32003KT 9999 SCT080 13/11 Q1003
LIBP 171450Z 10004KT 060V180 9999 FEW030 SCT090 13/12 Q1003
LIBP 171350Z 04004KT 020V090 9999 FEW030 SCT070 14/11 Q1003
LIBP 171250Z VRB03KT 9999 FEW020 SCT090 14/10 Q1003
LIBP 171150Z 35005KT 300V080 9999 FEW040 BKN100 14/11 Q1004
LIBP 171050Z 09007KT 060V120 9999 -RA FEW020 BKN070 14/12 Q1005
LIBP 171032Z 10005KT 060V140 9999 -RA FEW020 BKN080 14/12 Q1005 RERA
LIBP 170950Z 36003KT 320V040 6000 RA FEW020 BKN070 13/13 Q1006
LIBP 170850Z VRB01KT 4000 RA FEW020 BKN070 13/13 Q1005
LIBP 170750Z 25008KT 140V290 4000 RA FEW020 BKN070 15/11 Q1005
LIBP 170737Z 19011KT 140V240 4000 RA FEW040 BKN070 17/10 Q1004
LIBP 170650Z 10016KT 9999 SCT050 BKN100 17/09 Q1003
LIBP 170550Z AUTO 09011KT 9999 SCT150/// BKN240/// 16/08 Q1003
LIBP 170450Z AUTO 11012KT 9999 NCD 17/07 Q1003
LIBP 170350Z AUTO 13006KT 070V210 9999 SCT140/// 10/10 Q1004
LIBP 170305Z AUTO 20005KT 160V220 7000 NCD 08/07 Q1005
LIBP 170252Z AUTO 19003KT 2200 BR NCD 08/08 Q1005
LIBP 170250Z AUTO VRB02KT 4000 BR NCD 08/07 Q1005
LIBP 170228Z AUTO VRB02KT 4800 BR NCD 08/08 Q1005
LIBP 170220Z AUTO 25003KT 200V290 5000 BR FEW120/// 08/08 Q1005
LIBP 170206Z AUTO 18003KT 150V220 2500 BR NCD 08/08 Q1005
LIBP 170155Z AUTO 21005KT 4900 BR NCD 08/08 Q1005
LIBP 170150Z AUTO 20005KT 5000 BR NCD 08/08 Q1005
LIBP 170050Z AUTO 21004KT 2500 BR NCD 08/08 Q1006
LIBP 170026Z AUTO 17002KT 1200 R22/P1500N BR NCD 08/08 Q1006
LIBP 170022Z AUTO VRB02KT 4900 BR NCD 09/09 Q1006
LIBP 170020Z AUTO VRB02KT 5000 BR NCD 09/08 Q1006
LIBP 170004Z AUTO 22004KT 4400 BR NCD 09/09 Q1006
LIBP 162351Z AUTO 23003KT 0600 R22/P1500U FG NCD 09/09 Q1006
LIBP 162350Z AUTO 23003KT 0900 R22/P1500D FG NCD 09/09 Q1006
LIBP 162339Z AUTO 23003KT 2800 BR NCD 09/09 Q1006
LIBP 162338Z AUTO 23003KT 4900 BR NCD 09/09 Q1006
LIBP 162332Z AUTO 24003KT 210V270 6000 NCD 09/09 Q1006
LIBP 162250Z AUTO 21004KT 2000 BR BKN014/// 09/09 Q1007
LIBP 162232Z AUTO 21003KT 0300 R22/P1500N FG BKN014/// 09/09 Q1007
LIBP 162150Z VRB01KT 9999 R22/0700VP1500D MIFG FEW015 10/10 Q1008
LIBP 162050Z 19002KT 9999 FEW020 12/11 Q1009
LIBP 161950Z 27003KT 9999 FEW020 12/11 Q1009
LIBP 161850Z VRB02KT 9999 SCT035 13/12 Q1010

Informazioni elaborate utilizzando, tra l’altro, dati e prodotti del Servizio Meteorologico dell’Aeronautica Militare pubblicati sul sito www.meteoam.it e della National Oceanic and Atmospheric Administration (NOAA)

Ultimi caricamenti...


N711EG Gulfstream G-IV

 


N711EG Gulfstream G-IV

 


VF-140 Vigili del Fuoco AgustaWestland AW139

Questo sito non utilizza cookie di profilazione. Il sito utilizza cookie tecnici, di analisi anonima di prima parte e di terze parti per servizi di social network.